sensor_id;sensor_type;location;lat;lon;timestamp;temperature;humidity
69208;SHT31;56321;47.662;8.878;2023-04-12T00:01:25;10.63;72.65
69208;SHT31;56321;47.662;8.878;2023-04-12T00:03:51;10.63;72.90
69208;SHT31;56321;47.662;8.878;2023-04-12T00:06:18;10.63;72.99
69208;SHT31;56321;47.662;8.878;2023-04-12T00:08:49;10.60;72.99
69208;SHT31;56321;47.662;8.878;2023-04-12T00:11:15;10.59;73.15
69208;SHT31;56321;47.662;8.878;2023-04-12T00:13:40;10.59;73.16
69208;SHT31;56321;47.662;8.878;2023-04-12T00:16:07;10.56;73.14
69208;SHT31;56321;47.662;8.878;2023-04-12T00:18:32;10.54;73.04
69208;SHT31;56321;47.662;8.878;2023-04-12T00:20:57;10.52;73.16
69208;SHT31;56321;47.662;8.878;2023-04-12T00:23:23;10.49;73.13
69208;SHT31;56321;47.662;8.878;2023-04-12T00:25:48;10.43;73.31
69208;SHT31;56321;47.662;8.878;2023-04-12T00:28:14;10.45;73.59
69208;SHT31;56321;47.662;8.878;2023-04-12T00:30:39;10.43;73.69
69208;SHT31;56321;47.662;8.878;2023-04-12T00:33:05;10.45;73.66
69208;SHT31;56321;47.662;8.878;2023-04-12T00:35:31;10.46;73.80
69208;SHT31;56321;47.662;8.878;2023-04-12T00:37:56;10.43;74.01
69208;SHT31;56321;47.662;8.878;2023-04-12T00:40:21;10.45;74.15
69208;SHT31;56321;47.662;8.878;2023-04-12T00:42:47;10.46;74.25
69208;SHT31;56321;47.662;8.878;2023-04-12T00:45:13;10.42;74.12
69208;SHT31;56321;47.662;8.878;2023-04-12T00:47:39;10.43;74.12
69208;SHT31;56321;47.662;8.878;2023-04-12T00:50:07;10.43;74.08
69208;SHT31;56321;47.662;8.878;2023-04-12T00:52:33;10.40;74.03
69208;SHT31;56321;47.662;8.878;2023-04-12T00:55:02;10.42;74.13
69208;SHT31;56321;47.662;8.878;2023-04-12T00:57:31;10.37;74.23
69208;SHT31;56321;47.662;8.878;2023-04-12T00:59:58;10.39;74.24
69208;SHT31;56321;47.662;8.878;2023-04-12T01:02:23;10.39;74.21
69208;SHT31;56321;47.662;8.878;2023-04-12T01:04:49;10.37;73.88
69208;SHT31;56321;47.662;8.878;2023-04-12T01:07:36;10.36;74.47
69208;SHT31;56321;47.662;8.878;2023-04-12T01:10:09;10.35;73.74
69208;SHT31;56321;47.662;8.878;2023-04-12T01:15:29;10.28;74.20
69208;SHT31;56321;47.662;8.878;2023-04-12T01:18:02;10.29;74.07
69208;SHT31;56321;47.662;8.878;2023-04-12T01:20:32;10.29;74.23
69208;SHT31;56321;47.662;8.878;2023-04-12T01:26:42;10.28;73.95
69208;SHT31;56321;47.662;8.878;2023-04-12T01:29:14;10.22;74.17
69208;SHT31;56321;47.662;8.878;2023-04-12T01:31:48;10.22;74.33
69208;SHT31;56321;47.662;8.878;2023-04-12T01:34:15;10.25;74.40
69208;SHT31;56321;47.662;8.878;2023-04-12T01:36:43;10.22;74.55
69208;SHT31;56321;47.662;8.878;2023-04-12T01:39:10;10.23;74.61
69208;SHT31;56321;47.662;8.878;2023-04-12T01:41:41;10.22;74.83
69208;SHT31;56321;47.662;8.878;2023-04-12T01:44:13;10.22;74.67
69208;SHT31;56321;47.662;8.878;2023-04-12T01:46:39;10.23;74.80
69208;SHT31;56321;47.662;8.878;2023-04-12T01:49:04;10.23;74.83
69208;SHT31;56321;47.662;8.878;2023-04-12T01:51:53;10.23;75.11
69208;SHT31;56321;47.662;8.878;2023-04-12T01:54:31;10.22;74.90
69208;SHT31;56321;47.662;8.878;2023-04-12T01:56:59;10.22;74.81
69208;SHT31;56321;47.662;8.878;2023-04-12T01:59:30;10.22;74.84
69208;SHT31;56321;47.662;8.878;2023-04-12T02:01:56;10.20;74.86
69208;SHT31;56321;47.662;8.878;2023-04-12T02:04:23;10.23;75.02
69208;SHT31;56321;47.662;8.878;2023-04-12T02:06:50;10.20;74.84
69208;SHT31;56321;47.662;8.878;2023-04-12T02:09:16;10.22;74.85
69208;SHT31;56321;47.662;8.878;2023-04-12T02:11:45;10.18;74.78
69208;SHT31;56321;47.662;8.878;2023-04-12T02:14:12;10.16;74.55
69208;SHT31;56321;47.662;8.878;2023-04-12T02:16:37;10.12;74.81
69208;SHT31;56321;47.662;8.878;2023-04-12T02:19:03;10.13;74.65
69208;SHT31;56321;47.662;8.878;2023-04-12T02:21:38;10.12;74.42
69208;SHT31;56321;47.662;8.878;2023-04-12T02:24:05;10.03;74.50
69208;SHT31;56321;47.662;8.878;2023-04-12T02:26:30;10.01;75.02
69208;SHT31;56321;47.662;8.878;2023-04-12T02:28:55;10.02;75.08
69208;SHT31;56321;47.662;8.878;2023-04-12T02:31:21;10.02;75.08
69208;SHT31;56321;47.662;8.878;2023-04-12T02:33:47;10.03;75.10
69208;SHT31;56321;47.662;8.878;2023-04-12T02:36:13;10.05;75.28
69208;SHT31;56321;47.662;8.878;2023-04-12T02:38:38;10.05;75.62
69208;SHT31;56321;47.662;8.878;2023-04-12T02:41:03;10.06;75.59
69208;SHT31;56321;47.662;8.878;2023-04-12T02:43:29;10.09;75.37
69208;SHT31;56321;47.662;8.878;2023-04-12T02:45:56;10.10;75.53
69208;SHT31;56321;47.662;8.878;2023-04-12T02:48:21;10.08;75.16
69208;SHT31;56321;47.662;8.878;2023-04-12T02:50:46;10.03;75.51
69208;SHT31;56321;47.662;8.878;2023-04-12T02:53:12;10.06;75.55
69208;SHT31;56321;47.662;8.878;2023-04-12T02:55:37;9.99;75.52
69208;SHT31;56321;47.662;8.878;2023-04-12T02:58:03;10.03;75.64
69208;SHT31;56321;47.662;8.878;2023-04-12T03:00:28;9.98;75.88
69208;SHT31;56321;47.662;8.878;2023-04-12T03:02:53;10.01;75.93
69208;SHT31;56321;47.662;8.878;2023-04-12T03:05:19;10.01;75.85
69208;SHT31;56321;47.662;8.878;2023-04-12T03:07:44;10.01;75.89
69208;SHT31;56321;47.662;8.878;2023-04-12T03:10:10;9.98;75.79
69208;SHT31;56321;47.662;8.878;2023-04-12T03:12:36;10.03;76.02
69208;SHT31;56321;47.662;8.878;2023-04-12T03:15:02;10.03;75.97
69208;SHT31;56321;47.662;8.878;2023-04-12T03:17:27;10.08;76.04
69208;SHT31;56321;47.662;8.878;2023-04-12T03:19:53;10.06;76.06
69208;SHT31;56321;47.662;8.878;2023-04-12T03:22:19;10.08;76.00
69208;SHT31;56321;47.662;8.878;2023-04-12T03:24:44;10.08;76.05
69208;SHT31;56321;47.662;8.878;2023-04-12T03:27:10;10.03;75.77
69208;SHT31;56321;47.662;8.878;2023-04-12T03:29:36;10.01;75.86
69208;SHT31;56321;47.662;8.878;2023-04-12T03:32:01;9.98;75.89
69208;SHT31;56321;47.662;8.878;2023-04-12T03:34:26;9.95;76.04
69208;SHT31;56321;47.662;8.878;2023-04-12T03:36:56;9.95;75.85
69208;SHT31;56321;47.662;8.878;2023-04-12T03:39:21;9.97;76.09
69208;SHT31;56321;47.662;8.878;2023-04-12T03:41:47;9.92;76.07
69208;SHT31;56321;47.662;8.878;2023-04-12T03:44:12;9.88;75.98
69208;SHT31;56321;47.662;8.878;2023-04-12T03:46:38;9.81;75.87
69208;SHT31;56321;47.662;8.878;2023-04-12T03:49:04;9.77;76.21
69208;SHT31;56321;47.662;8.878;2023-04-12T03:51:29;9.75;76.66
69208;SHT31;56321;47.662;8.878;2023-04-12T03:53:55;9.77;76.52
69208;SHT31;56321;47.662;8.878;2023-04-12T03:56:20;9.78;76.44
69208;SHT31;56321;47.662;8.878;2023-04-12T03:58:46;9.81;76.66
69208;SHT31;56321;47.662;8.878;2023-04-12T04:01:11;9.82;76.79
69208;SHT31;56321;47.662;8.878;2023-04-12T04:03:40;9.84;76.81
69208;SHT31;56321;47.662;8.878;2023-04-12T04:06:06;9.82;76.38
69208;SHT31;56321;47.662;8.878;2023-04-12T04:08:32;9.81;76.57
69208;SHT31;56321;47.662;8.878;2023-04-12T04:10:58;9.82;76.73
69208;SHT31;56321;47.662;8.878;2023-04-12T04:13:24;9.82;76.65
69208;SHT31;56321;47.662;8.878;2023-04-12T04:15:55;9.82;76.64
69208;SHT31;56321;47.662;8.878;2023-04-12T04:18:22;9.85;76.58
69208;SHT31;56321;47.662;8.878;2023-04-12T04:20:48;9.85;76.72
69208;SHT31;56321;47.662;8.878;2023-04-12T04:23:13;9.85;76.67
69208;SHT31;56321;47.662;8.878;2023-04-12T04:25:39;9.87;76.73
69208;SHT31;56321;47.662;8.878;2023-04-12T04:28:05;9.88;76.51
69208;SHT31;56321;47.662;8.878;2023-04-12T04:30:32;9.87;76.18
69208;SHT31;56321;47.662;8.878;2023-04-12T04:32:58;9.79;76.08
69208;SHT31;56321;47.662;8.878;2023-04-12T04:35:23;9.75;76.15
69208;SHT31;56321;47.662;8.878;2023-04-12T04:37:49;9.73;76.42
69208;SHT31;56321;47.662;8.878;2023-04-12T04:40:17;9.75;76.38
69208;SHT31;56321;47.662;8.878;2023-04-12T04:42:42;9.77;76.61
69208;SHT31;56321;47.662;8.878;2023-04-12T04:45:10;9.77;76.84
69208;SHT31;56321;47.662;8.878;2023-04-12T04:47:39;9.81;76.68
69208;SHT31;56321;47.662;8.878;2023-04-12T04:50:04;9.81;76.82
69208;SHT31;56321;47.662;8.878;2023-04-12T04:52:30;9.84;76.92
69208;SHT31;56321;47.662;8.878;2023-04-12T04:54:56;9.84;77.01
69208;SHT31;56321;47.662;8.878;2023-04-12T04:57:22;9.85;76.96
69208;SHT31;56321;47.662;8.878;2023-04-12T04:59:47;9.88;77.01
69208;SHT31;56321;47.662;8.878;2023-04-12T05:02:13;9.85;77.06
69208;SHT31;56321;47.662;8.878;2023-04-12T05:04:38;9.88;76.94
69208;SHT31;56321;47.662;8.878;2023-04-12T05:07:03;9.88;76.80
69208;SHT31;56321;47.662;8.878;2023-04-12T05:09:29;9.85;76.80
69208;SHT31;56321;47.662;8.878;2023-04-12T05:11:54;9.85;76.93
69208;SHT31;56321;47.662;8.878;2023-04-12T05:14:20;9.87;77.02
69208;SHT31;56321;47.662;8.878;2023-04-12T05:16:45;9.89;77.14
69208;SHT31;56321;47.662;8.878;2023-04-12T05:19:10;9.87;77.09
69208;SHT31;56321;47.662;8.878;2023-04-12T05:21:36;9.92;76.90
69208;SHT31;56321;47.662;8.878;2023-04-12T05:24:01;9.91;77.06
69208;SHT31;56321;47.662;8.878;2023-04-12T05:26:26;9.94;77.18
69208;SHT31;56321;47.662;8.878;2023-04-12T05:28:52;9.97;77.09
69208;SHT31;56321;47.662;8.878;2023-04-12T05:31:17;9.97;77.02
69208;SHT31;56321;47.662;8.878;2023-04-12T05:33:43;9.95;77.08
69208;SHT31;56321;47.662;8.878;2023-04-12T05:36:10;9.97;77.05
69208;SHT31;56321;47.662;8.878;2023-04-12T05:38:35;9.99;77.15
69208;SHT31;56321;47.662;8.878;2023-04-12T05:41:00;9.98;77.13
69208;SHT31;56321;47.662;8.878;2023-04-12T05:43:29;10.02;77.24
69208;SHT31;56321;47.662;8.878;2023-04-12T05:45:55;10.02;77.22
69208;SHT31;56321;47.662;8.878;2023-04-12T05:48:20;9.99;77.27
69208;SHT31;56321;47.662;8.878;2023-04-12T05:50:53;10.01;77.31
69208;SHT31;56321;47.662;8.878;2023-04-12T05:53:19;10.03;77.15
69208;SHT31;56321;47.662;8.878;2023-04-12T05:55:45;10.03;77.11
69208;SHT31;56321;47.662;8.878;2023-04-12T05:58:10;10.06;77.06
69208;SHT31;56321;47.662;8.878;2023-04-12T06:00:38;10.06;77.27
69208;SHT31;56321;47.662;8.878;2023-04-12T06:03:03;10.08;77.04
69208;SHT31;56321;47.662;8.878;2023-04-12T06:05:29;10.08;76.91
69208;SHT31;56321;47.662;8.878;2023-04-12T06:07:54;10.06;77.02
69208;SHT31;56321;47.662;8.878;2023-04-12T06:10:19;10.08;76.83
69208;SHT31;56321;47.662;8.878;2023-04-12T06:12:45;10.06;76.93
69208;SHT31;56321;47.662;8.878;2023-04-12T06:15:11;10.08;76.99
69208;SHT31;56321;47.662;8.878;2023-04-12T06:17:36;10.06;77.07
69208;SHT31;56321;47.662;8.878;2023-04-12T06:20:05;10.08;77.20
69208;SHT31;56321;47.662;8.878;2023-04-12T06:22:35;10.06;77.26
69208;SHT31;56321;47.662;8.878;2023-04-12T06:25:00;10.06;76.96
69208;SHT31;56321;47.662;8.878;2023-04-12T06:27:25;10.03;77.09
69208;SHT31;56321;47.662;8.878;2023-04-12T06:29:51;9.98;77.15
69208;SHT31;56321;47.662;8.878;2023-04-12T06:32:17;9.98;77.33
69208;SHT31;56321;47.662;8.878;2023-04-12T06:34:42;9.99;77.51
69208;SHT31;56321;47.662;8.878;2023-04-12T06:37:07;9.99;77.58
69208;SHT31;56321;47.662;8.878;2023-04-12T06:39:33;10.01;77.65
69208;SHT31;56321;47.662;8.878;2023-04-12T06:41:58;10.03;77.71
69208;SHT31;56321;47.662;8.878;2023-04-12T06:44:24;10.05;77.76
69208;SHT31;56321;47.662;8.878;2023-04-12T06:46:51;10.08;77.81
69208;SHT31;56321;47.662;8.878;2023-04-12T06:49:17;10.13;77.76
69208;SHT31;56321;47.662;8.878;2023-04-12T06:51:43;10.13;77.83
69208;SHT31;56321;47.662;8.878;2023-04-12T06:54:08;10.15;77.52
69208;SHT31;56321;47.662;8.878;2023-04-12T06:56:35;10.16;77.81
69208;SHT31;56321;47.662;8.878;2023-04-12T06:59:01;10.23;77.95
69208;SHT31;56321;47.662;8.878;2023-04-12T07:01:26;10.26;77.88
69208;SHT31;56321;47.662;8.878;2023-04-12T07:03:52;10.35;77.90
69208;SHT31;56321;47.662;8.878;2023-04-12T07:06:17;10.39;77.63
69208;SHT31;56321;47.662;8.878;2023-04-12T07:08:42;10.45;77.39
69208;SHT31;56321;47.662;8.878;2023-04-12T07:11:07;10.49;77.27
69208;SHT31;56321;47.662;8.878;2023-04-12T07:13:33;10.60;77.54
69208;SHT31;56321;47.662;8.878;2023-04-12T07:15:58;10.73;77.52
69208;SHT31;56321;47.662;8.878;2023-04-12T07:18:25;10.87;77.40
69208;SHT31;56321;47.662;8.878;2023-04-12T07:20:53;11.04;77.49
69208;SHT31;56321;47.662;8.878;2023-04-12T07:23:18;11.16;77.17
69208;SHT31;56321;47.662;8.878;2023-04-12T07:25:44;11.26;76.55
69208;SHT31;56321;47.662;8.878;2023-04-12T07:28:09;11.31;76.73
69208;SHT31;56321;47.662;8.878;2023-04-12T07:30:35;11.39;76.49
69208;SHT31;56321;47.662;8.878;2023-04-12T07:33:00;11.39;76.29
69208;SHT31;56321;47.662;8.878;2023-04-12T07:35:29;11.46;75.71
69208;SHT31;56321;47.662;8.878;2023-04-12T07:37:55;11.46;75.82
69208;SHT31;56321;47.662;8.878;2023-04-12T07:40:20;11.52;75.95
69208;SHT31;56321;47.662;8.878;2023-04-12T07:42:45;11.60;76.12
69208;SHT31;56321;47.662;8.878;2023-04-12T07:45:11;11.71;76.04
69208;SHT31;56321;47.662;8.878;2023-04-12T07:47:36;11.83;75.85
69208;SHT31;56321;47.662;8.878;2023-04-12T07:50:01;11.87;75.48
69208;SHT31;56321;47.662;8.878;2023-04-12T07:52:28;11.97;75.32
69208;SHT31;56321;47.662;8.878;2023-04-12T07:54:53;12.02;75.07
69208;SHT31;56321;47.662;8.878;2023-04-12T07:57:19;12.13;75.05
69208;SHT31;56321;47.662;8.878;2023-04-12T07:59:45;12.21;74.78
69208;SHT31;56321;47.662;8.878;2023-04-12T08:02:10;12.31;74.94
69208;SHT31;56321;47.662;8.878;2023-04-12T08:04:36;12.45;75.06
69208;SHT31;56321;47.662;8.878;2023-04-12T08:07:02;12.55;74.17
69208;SHT31;56321;47.662;8.878;2023-04-12T08:09:27;12.67;73.56
69208;SHT31;56321;47.662;8.878;2023-04-12T08:11:53;12.76;73.59
69208;SHT31;56321;47.662;8.878;2023-04-12T08:14:19;12.86;73.12
69208;SHT31;56321;47.662;8.878;2023-04-12T08:16:44;12.94;72.65
69208;SHT31;56321;47.662;8.878;2023-04-12T08:19:09;13.06;72.70
69208;SHT31;56321;47.662;8.878;2023-04-12T08:21:34;13.21;73.03
69208;SHT31;56321;47.662;8.878;2023-04-12T08:24:00;13.35;72.56
69208;SHT31;56321;47.662;8.878;2023-04-12T08:26:25;13.51;72.35
69208;SHT31;56321;47.662;8.878;2023-04-12T08:28:51;13.57;72.18
69208;SHT31;56321;47.662;8.878;2023-04-12T08:31:17;13.63;72.05
69208;SHT31;56321;47.662;8.878;2023-04-12T08:33:42;13.72;72.54
69208;SHT31;56321;47.662;8.878;2023-04-12T08:36:08;13.82;71.67
69208;SHT31;56321;47.662;8.878;2023-04-12T08:38:36;13.89;71.50
69208;SHT31;56321;47.662;8.878;2023-04-12T08:41:05;13.99;71.49
69208;SHT31;56321;47.662;8.878;2023-04-12T08:43:32;14.05;71.49
69208;SHT31;56321;47.662;8.878;2023-04-12T08:45:58;14.13;71.06
69208;SHT31;56321;47.662;8.878;2023-04-12T08:48:25;14.18;70.19
69208;SHT31;56321;47.662;8.878;2023-04-12T08:50:51;14.23;69.98
69208;SHT31;56321;47.662;8.878;2023-04-12T08:53:16;14.27;70.20
69208;SHT31;56321;47.662;8.878;2023-04-12T08:55:43;14.33;69.97
69208;SHT31;56321;47.662;8.878;2023-04-12T08:58:12;14.45;70.38
69208;SHT31;56321;47.662;8.878;2023-04-12T09:00:38;14.63;70.25
69208;SHT31;56321;47.662;8.878;2023-04-12T09:03:04;14.81;69.79
69208;SHT31;56321;47.662;8.878;2023-04-12T09:05:29;15.00;69.49
69208;SHT31;56321;47.662;8.878;2023-04-12T09:07:56;15.19;68.74
69208;SHT31;56321;47.662;8.878;2023-04-12T09:10:35;15.33;67.18
69208;SHT31;56321;47.662;8.878;2023-04-12T09:13:05;15.51;66.73
69208;SHT31;56321;47.662;8.878;2023-04-12T09:15:32;15.67;67.32
69208;SHT31;56321;47.662;8.878;2023-04-12T09:18:09;15.85;66.52
69208;SHT31;56321;47.662;8.878;2023-04-12T09:20:35;16.09;67.13
69208;SHT31;56321;47.662;8.878;2023-04-12T09:23:00;16.25;66.13
69208;SHT31;56321;47.662;8.878;2023-04-12T09:25:42;16.43;65.71
69208;SHT31;56321;47.662;8.878;2023-04-12T09:28:24;16.54;63.77
69208;SHT31;56321;47.662;8.878;2023-04-12T09:30:51;16.64;64.67
69208;SHT31;56321;47.662;8.878;2023-04-12T09:33:18;16.81;64.27
69208;SHT31;56321;47.662;8.878;2023-04-12T09:35:43;16.95;63.74
69208;SHT31;56321;47.662;8.878;2023-04-12T09:38:09;17.08;63.65
69208;SHT31;56321;47.662;8.878;2023-04-12T09:40:35;17.16;63.06
69208;SHT31;56321;47.662;8.878;2023-04-12T09:43:01;17.18;61.60
69208;SHT31;56321;47.662;8.878;2023-04-12T09:45:28;17.18;61.80
69208;SHT31;56321;47.662;8.878;2023-04-12T09:47:55;17.14;61.09
69208;SHT31;56321;47.662;8.878;2023-04-12T09:50:25;17.05;60.95
69208;SHT31;56321;47.662;8.878;2023-04-12T09:52:53;17.00;62.12
69208;SHT31;56321;47.662;8.878;2023-04-12T09:55:20;16.95;61.92
69208;SHT31;56321;47.662;8.878;2023-04-12T09:57:49;17.00;61.67
69208;SHT31;56321;47.662;8.878;2023-04-12T10:00:15;17.05;61.11
69208;SHT31;56321;47.662;8.878;2023-04-12T10:02:43;17.10;60.57
69208;SHT31;56321;47.662;8.878;2023-04-12T10:05:10;17.16;60.88
69208;SHT31;56321;47.662;8.878;2023-04-12T10:07:39;17.31;61.72
69208;SHT31;56321;47.662;8.878;2023-04-12T10:10:06;17.45;61.04
69208;SHT31;56321;47.662;8.878;2023-04-12T10:12:34;17.59;60.62
69208;SHT31;56321;47.662;8.878;2023-04-12T10:15:03;17.69;60.54
69208;SHT31;56321;47.662;8.878;2023-04-12T10:17:48;17.88;60.05
69208;SHT31;56321;47.662;8.878;2023-04-12T10:20:15;18.04;59.72
69208;SHT31;56321;47.662;8.878;2023-04-12T10:22:42;18.28;58.85
69208;SHT31;56321;47.662;8.878;2023-04-12T10:25:16;18.36;58.06
69208;SHT31;56321;47.662;8.878;2023-04-12T10:27:43;18.49;58.07
69208;SHT31;56321;47.662;8.878;2023-04-12T10:30:26;18.62;56.82
69208;SHT31;56321;47.662;8.878;2023-04-12T10:35:27;19.14;57.27
69208;SHT31;56321;47.662;8.878;2023-04-12T10:38:03;19.21;55.04
69208;SHT31;56321;47.662;8.878;2023-04-12T10:40:30;19.06;55.65
69208;SHT31;56321;47.662;8.878;2023-04-12T10:45:46;18.51;56.23
69208;SHT31;56321;47.662;8.878;2023-04-12T10:48:37;18.25;55.46
69208;SHT31;56321;47.662;8.878;2023-04-12T10:53:52;17.77;56.45
69208;SHT31;56321;47.662;8.878;2023-04-12T10:58:59;17.36;57.03
69208;SHT31;56321;47.662;8.878;2023-04-12T11:01:26;17.26;57.37
69208;SHT31;56321;47.662;8.878;2023-04-12T11:04:19;17.11;57.62
69208;SHT31;56321;47.662;8.878;2023-04-12T11:12:10;16.52;59.14
69208;SHT31;56321;47.662;8.878;2023-04-12T11:19:40;15.85;62.63
69208;SHT31;56321;47.662;8.878;2023-04-12T11:22:10;15.62;63.06
69208;SHT31;56321;47.662;8.878;2023-04-12T11:24:37;15.41;62.98
69208;SHT31;56321;47.662;8.878;2023-04-12T11:27:03;15.23;63.78
69208;SHT31;56321;47.662;8.878;2023-04-12T11:29:28;15.12;64.63
69208;SHT31;56321;47.662;8.878;2023-04-12T11:31:57;14.99;65.74
69208;SHT31;56321;47.662;8.878;2023-04-12T11:34:22;14.95;65.17
69208;SHT31;56321;47.662;8.878;2023-04-12T11:36:51;14.86;65.68
69208;SHT31;56321;47.662;8.878;2023-04-12T11:39:18;14.84;65.87
69208;SHT31;56321;47.662;8.878;2023-04-12T11:41:47;14.76;66.40
69208;SHT31;56321;47.662;8.878;2023-04-12T11:44:13;14.75;66.20
69208;SHT31;56321;47.662;8.878;2023-04-12T11:46:40;14.69;65.68
69208;SHT31;56321;47.662;8.878;2023-04-12T11:49:05;14.61;66.34
69208;SHT31;56321;47.662;8.878;2023-04-12T11:51:31;14.61;67.05
69208;SHT31;56321;47.662;8.878;2023-04-12T11:53:57;14.67;67.26
69208;SHT31;56321;47.662;8.878;2023-04-12T11:56:23;14.67;66.99
69208;SHT31;56321;47.662;8.878;2023-04-12T11:58:49;14.69;68.13
69208;SHT31;56321;47.662;8.878;2023-04-12T12:01:16;14.69;67.97
69208;SHT31;56321;47.662;8.878;2023-04-12T12:03:42;14.72;68.58
69208;SHT31;56321;47.662;8.878;2023-04-12T12:06:08;14.72;67.75
69208;SHT31;56321;47.662;8.878;2023-04-12T12:08:34;14.71;67.72
69208;SHT31;56321;47.662;8.878;2023-04-12T12:11:00;14.65;67.45
69208;SHT31;56321;47.662;8.878;2023-04-12T12:13:25;14.64;67.60
69208;SHT31;56321;47.662;8.878;2023-04-12T12:15:51;14.68;68.05
69208;SHT31;56321;47.662;8.878;2023-04-12T12:18:16;14.69;67.68
69208;SHT31;56321;47.662;8.878;2023-04-12T12:20:49;14.71;68.41
69208;SHT31;56321;47.662;8.878;2023-04-12T12:23:31;14.74;68.63
69208;SHT31;56321;47.662;8.878;2023-04-12T12:25:58;14.72;67.85
69208;SHT31;56321;47.662;8.878;2023-04-12T12:28:24;14.71;68.75
69208;SHT31;56321;47.662;8.878;2023-04-12T12:30:53;14.71;68.16
69208;SHT31;56321;47.662;8.878;2023-04-12T12:33:22;14.72;67.92
69208;SHT31;56321;47.662;8.878;2023-04-12T12:35:57;14.67;68.28
69208;SHT31;56321;47.662;8.878;2023-04-12T12:38:22;14.68;68.52
69208;SHT31;56321;47.662;8.878;2023-04-12T12:40:48;14.65;68.04
69208;SHT31;56321;47.662;8.878;2023-04-12T12:43:17;14.58;68.59
69208;SHT31;56321;47.662;8.878;2023-04-12T12:45:43;14.51;68.78
69208;SHT31;56321;47.662;8.878;2023-04-12T12:48:09;14.44;68.84
69208;SHT31;56321;47.662;8.878;2023-04-12T12:50:34;14.41;69.21
69208;SHT31;56321;47.662;8.878;2023-04-12T12:53:01;14.36;69.39
69208;SHT31;56321;47.662;8.878;2023-04-12T12:55:28;14.31;69.27
69208;SHT31;56321;47.662;8.878;2023-04-12T12:57:54;14.27;69.18
69208;SHT31;56321;47.662;8.878;2023-04-12T13:00:26;14.21;69.49
69208;SHT31;56321;47.662;8.878;2023-04-12T13:02:52;14.16;70.16
69208;SHT31;56321;47.662;8.878;2023-04-12T13:05:19;14.20;70.81
69208;SHT31;56321;47.662;8.878;2023-04-12T13:07:45;14.21;71.07
69208;SHT31;56321;47.662;8.878;2023-04-12T13:10:11;14.24;70.89
69208;SHT31;56321;47.662;8.878;2023-04-12T13:12:36;14.24;70.81
69208;SHT31;56321;47.662;8.878;2023-04-12T13:15:01;14.27;71.56
69208;SHT31;56321;47.662;8.878;2023-04-12T13:17:27;14.36;70.59
69208;SHT31;56321;47.662;8.878;2023-04-12T13:19:53;14.40;70.68
69208;SHT31;56321;47.662;8.878;2023-04-12T13:22:19;14.37;70.15
69208;SHT31;56321;47.662;8.878;2023-04-12T13:24:44;14.41;70.12
69208;SHT31;56321;47.662;8.878;2023-04-12T13:27:11;14.45;70.49
69208;SHT31;56321;47.662;8.878;2023-04-12T13:29:36;14.51;70.70
69208;SHT31;56321;47.662;8.878;2023-04-12T13:32:02;14.52;70.48
69208;SHT31;56321;47.662;8.878;2023-04-12T13:34:28;14.60;69.98
69208;SHT31;56321;47.662;8.878;2023-04-12T13:36:53;14.58;69.20
69208;SHT31;56321;47.662;8.878;2023-04-12T13:39:19;14.64;69.68
69208;SHT31;56321;47.662;8.878;2023-04-12T13:41:45;14.74;70.17
69208;SHT31;56321;47.662;8.878;2023-04-12T13:44:10;14.86;70.43
69208;SHT31;56321;47.662;8.878;2023-04-12T13:46:36;14.93;69.09
69208;SHT31;56321;47.662;8.878;2023-04-12T13:49:01;14.91;68.30
69208;SHT31;56321;47.662;8.878;2023-04-12T13:51:27;14.91;68.24
69208;SHT31;56321;47.662;8.878;2023-04-12T13:53:53;14.89;68.27
69208;SHT31;56321;47.662;8.878;2023-04-12T13:56:18;14.85;68.37
69208;SHT31;56321;47.662;8.878;2023-04-12T13:58:45;14.78;67.74
69208;SHT31;56321;47.662;8.878;2023-04-12T14:01:10;14.72;68.15
69208;SHT31;56321;47.662;8.878;2023-04-12T14:03:37;14.74;68.48
69208;SHT31;56321;47.662;8.878;2023-04-12T14:06:02;14.75;68.14
69208;SHT31;56321;47.662;8.878;2023-04-12T14:08:28;14.79;68.25
69208;SHT31;56321;47.662;8.878;2023-04-12T14:10:53;14.78;68.13
69208;SHT31;56321;47.662;8.878;2023-04-12T14:13:22;14.84;68.18
69208;SHT31;56321;47.662;8.878;2023-04-12T14:15:51;14.88;67.93
69208;SHT31;56321;47.662;8.878;2023-04-12T14:18:18;14.88;67.49
69208;SHT31;56321;47.662;8.878;2023-04-12T14:20:44;14.89;67.54
69208;SHT31;56321;47.662;8.878;2023-04-12T14:23:12;14.86;67.51
69208;SHT31;56321;47.662;8.878;2023-04-12T14:25:38;14.84;67.21
69208;SHT31;56321;47.662;8.878;2023-04-12T14:28:03;14.84;67.11
69208;SHT31;56321;47.662;8.878;2023-04-12T14:30:28;14.79;67.50
69208;SHT31;56321;47.662;8.878;2023-04-12T14:32:54;14.78;66.95
69208;SHT31;56321;47.662;8.878;2023-04-12T14:35:19;14.76;66.84
69208;SHT31;56321;47.662;8.878;2023-04-12T14:37:44;14.72;66.33
69208;SHT31;56321;47.662;8.878;2023-04-12T14:40:11;14.69;66.28
69208;SHT31;56321;47.662;8.878;2023-04-12T14:42:36;14.65;65.90
69208;SHT31;56321;47.662;8.878;2023-04-12T14:45:02;14.64;66.59
69208;SHT31;56321;47.662;8.878;2023-04-12T14:47:29;14.65;66.56
69208;SHT31;56321;47.662;8.878;2023-04-12T14:49:54;14.65;66.39
69208;SHT31;56321;47.662;8.878;2023-04-12T14:52:20;14.65;65.91
69208;SHT31;56321;47.662;8.878;2023-04-12T14:54:45;14.60;65.92
69208;SHT31;56321;47.662;8.878;2023-04-12T14:57:10;14.58;65.87
69208;SHT31;56321;47.662;8.878;2023-04-12T14:59:36;14.54;66.22
69208;SHT31;56321;47.662;8.878;2023-04-12T15:02:01;14.51;66.07
69208;SHT31;56321;47.662;8.878;2023-04-12T15:04:27;14.51;66.64
69208;SHT31;56321;47.662;8.878;2023-04-12T15:06:52;14.45;66.35
69208;SHT31;56321;47.662;8.878;2023-04-12T15:09:17;14.44;66.74
69208;SHT31;56321;47.662;8.878;2023-04-12T15:11:43;14.38;66.57
69208;SHT31;56321;47.662;8.878;2023-04-12T15:14:10;14.34;66.93
69208;SHT31;56321;47.662;8.878;2023-04-12T15:16:38;14.26;67.37
69208;SHT31;56321;47.662;8.878;2023-04-12T15:19:06;14.26;68.24
69208;SHT31;56321;47.662;8.878;2023-04-12T15:21:31;14.24;69.09
69208;SHT31;56321;47.662;8.878;2023-04-12T15:23:57;14.20;69.55
69208;SHT31;56321;47.662;8.878;2023-04-12T15:26:22;14.20;69.97
69208;SHT31;56321;47.662;8.878;2023-04-12T15:28:47;14.14;70.46
69208;SHT31;56321;47.662;8.878;2023-04-12T15:31:12;14.10;70.61
69208;SHT31;56321;47.662;8.878;2023-04-12T15:33:38;14.00;70.59
69208;SHT31;56321;47.662;8.878;2023-04-12T15:36:04;13.97;71.22
69208;SHT31;56321;47.662;8.878;2023-04-12T15:38:29;13.91;71.75
69208;SHT31;56321;47.662;8.878;2023-04-12T15:40:57;13.87;71.97
69208;SHT31;56321;47.662;8.878;2023-04-12T15:43:23;13.86;72.05
69208;SHT31;56321;47.662;8.878;2023-04-12T15:45:49;13.83;72.30
69208;SHT31;56321;47.662;8.878;2023-04-12T15:48:22;13.76;72.40
69208;SHT31;56321;47.662;8.878;2023-04-12T15:50:48;13.73;72.32
69208;SHT31;56321;47.662;8.878;2023-04-12T15:53:15;13.66;72.76
69208;SHT31;56321;47.662;8.878;2023-04-12T15:55:43;13.65;73.03
69208;SHT31;56321;47.662;8.878;2023-04-12T15:58:08;13.62;73.27